Time;durP1;ratioP1;P1;durP2;ratioP2;P2;SDS_P1;SDS_P2;PMS_P1;PMS_P2;Temp;Humidity;BMP_temperature;BMP_pressure;BME280_temperature;BME280_humidity;BME280_pressure;Samples;Min_cycle;Max_cycle;Signal;HPM_P1;HPM_P2
2022/01/19 00:01:08;;;;;;;16.90;8.50;;;;;;;;;;5032402;28;20029;-48
2022/01/19 00:03:34;;;;;;;15.38;7.50;;;;;;;;;;5032269;28;20048;-47
2022/01/19 00:06:00;;;;;;;18.65;8.40;;;;;;;;;;5032393;28;20026;-47
2022/01/19 00:08:28;;;;;;;19.10;8.43;;;;;;;;;;5032389;28;20098;-47
2022/01/19 00:10:54;;;;;;;18.05;7.03;;;;;;;;;;5032219;28;20040;-47
2022/01/19 00:13:20;;;;;;;18.80;8.48;;;;;;;;;;5032259;28;20029;-48
2022/01/19 00:15:46;;;;;;;19.50;8.95;;;;;;;;;;5031736;28;20025;-47
2022/01/19 00:18:13;;;;;;;17.10;7.65;;;;;;;;;;5032261;28;20033;-47
2022/01/19 00:20:39;;;;;;;17.50;6.95;;;;;;;;;;5032357;28;20034;-48
2022/01/19 00:23:05;;;;;;;16.67;7.90;;;;;;;;;;5032086;28;20038;-48
2022/01/19 00:25:32;;;;;;;15.73;7.55;;;15.90;92.30;;;;;;5032163;28;20076;-47
2022/01/19 00:27:58;;;;;;;17.73;8.68;;;;;;;;;;5032345;28;20109;-47
2022/01/19 00:30:26;;;;;;;15.77;7.30;;;;;;;;;;5032046;28;20104;-47
2022/01/19 00:32:52;;;;;;;18.63;8.48;;;;;;;;;;5032637;28;20108;-49
2022/01/19 00:35:18;;;;;;;20.90;8.25;;;;;;;;;;5032132;28;20080;-46
2022/01/19 00:37:44;;;;;;;16.58;8.07;;;;;;;;;;5031940;28;20022;-45
2022/01/19 00:40:13;;;;;;;12.10;7.63;;;;;;;;;;5031997;28;20083;-48
2022/01/19 00:42:39;;;;;;;13.38;7.22;;;;;;;;;;5031842;28;20119;-46
2022/01/19 00:45:05;;;;;;;16.67;8.00;;;;;;;;;;5031984;28;20033;-46
2022/01/19 00:47:32;;;;;;;19.55;8.50;;;;;;;;;;5032154;28;20049;-46
2022/01/19 00:49:57;;;;;;;15.65;8.52;;;;;;;;;;5031839;28;20029;-47
2022/01/19 00:52:24;;;;;;;16.10;7.47;;;;;;;;;;5031967;28;20025;-46
2022/01/19 00:54:50;;;;;;;18.88;8.52;;;;;;;;;;5031859;28;20022;-47
2022/01/19 00:57:16;;;;;;;14.77;7.75;;;;;;;;;;5031749;28;20429;-46
2022/01/19 00:59:42;;;;;;;15.40;7.78;;;;;;;;;;5031809;28;20105;-46
2022/01/19 01:02:07;;;;;;;13.18;7.32;;;;;;;;;;5031463;28;20053;-47
2022/01/19 01:04:33;;;;;;;18.50;7.85;;;;;;;;;;5031745;28;20022;-47
2022/01/19 01:07:00;;;;;;;14.93;8.18;;;15.70;91.40;;;;;;5031620;28;20088;-47
2022/01/19 01:09:26;;;;;;;16.38;8.38;;;;;;;;;;5031671;28;20384;-46
2022/01/19 01:12:13;;;;;;;15.93;8.20;;;;;;;;;;5031717;28;20075;-46
2022/01/19 01:20:10;;;;;;;15.13;7.40;;;;;;;;;;5031892;28;20079;-47
2022/01/19 01:22:37;;;;;;;16.38;7.55;;;15.60;90.40;;;;;;5031773;28;20408;-47
2022/01/19 01:25:03;;;;;;;16.17;7.95;;;;;;;;;;5031616;28;20032;-47
2022/01/19 01:27:29;;;;;;;18.95;7.72;;;;;;;;;;5035080;28;20116;-47
2022/01/19 01:29:55;;;;;;;16.00;7.47;;;;;;;;;;5035378;28;20061;-48
2022/01/19 01:32:21;;;;;;;13.35;7.63;;;;;;;;;;5035343;28;20173;-47
2022/01/19 01:34:47;;;;;;;16.05;8.57;;;;;;;;;;5035182;28;20211;-47
2022/01/19 01:37:13;;;;;;;14.43;7.35;;;;;;;;;;5035085;28;20102;-48
2022/01/19 01:39:39;;;;;;;12.63;7.22;;;;;;;;;;5035132;28;20061;-47
2022/01/19 01:42:12;;;;;;;14.38;6.55;;;15.50;88.50;;;;;;5034976;28;20064;-47
2022/01/19 01:44:39;;;;;;;15.98;8.13;;;;;;;;;;5034949;28;20029;-47
2022/01/19 01:47:06;;;;;;;15.30;7.20;;;15.50;92.10;;;;;;5035040;28;20391;-47
2022/01/19 01:55:03;;;;;;;14.50;7.10;;;;;;;;;;5034882;28;20044;-47
2022/01/19 01:57:29;;;;;;;15.98;7.90;;;;;;;;;;5035005;28;20155;-47
2022/01/19 01:59:55;;;;;;;10.70;7.07;;;;;;;;;;5034798;28;20069;-46
2022/01/19 02:02:20;;;;;;;12.75;7.00;;;;;;;;;;5034374;28;20041;-46
2022/01/19 02:04:46;;;;;;;14.73;7.40;;;;;;;;;;5034651;28;20480;-47
2022/01/19 02:07:40;;;;;;;14.15;7.57;;;15.50;90.60;;;;;;5034635;28;20033;-47
2022/01/19 02:10:15;;;;;;;12.65;7.45;;;;;;;;;;5034633;28;20043;-47
2022/01/19 02:23:53;;;;;;;14.32;7.85;;;;;;;;;;5034660;28;20523;-47
2022/01/19 02:26:44;;;;;;;12.35;7.60;;;;;;;;;;5034187;28;20079;-48
2022/01/19 02:29:50;;;;;;;14.88;7.35;;;;;;;;;;5034085;28;20040;-46
2022/01/19 02:40:25;;;;;;;12.35;7.53;;;;;;;;;;5034010;28;20083;-46
2022/01/19 02:50:31;;;;;;;14.95;8.43;;;15.30;90.60;;;;;;5033873;28;20036;-47
2022/01/19 02:52:57;;;;;;;14.00;8.07;;;;;;;;;;5033803;28;20527;-46
2022/01/19 02:55:23;;;;;;;12.02;7.30;;;;;;;;;;5033701;28;20403;-47
2022/01/19 02:57:49;;;;;;;13.93;7.55;;;;;;;;;;5033737;28;20240;-47
2022/01/19 03:08:47;;;;;;;17.35;8.02;;;;;;;;;;5033487;28;20041;-47
2022/01/19 03:11:17;;;;;;;14.98;8.20;;;15.10;92.00;;;;;;5032226;28;20553;-47
2022/01/19 03:13:44;;;;;;;14.77;7.68;;;;;;;;;;5033679;28;20159;-47
2022/01/19 03:16:10;;;;;;;13.35;7.57;;;;;;;;;;5033351;28;20056;-47
2022/01/19 03:18:36;;;;;;;12.32;7.43;;;;;;;;;;5033246;28;20175;-47
2022/01/19 03:21:02;;;;;;;13.30;7.60;;;;;;;;;;5033602;28;20025;-47
2022/01/19 03:23:28;;;;;;;13.23;7.32;;;;;;;;;;5033099;28;20041;-47
2022/01/19 03:25:56;;;;;;;13.50;8.20;;;;;;;;;;5033262;28;20029;-47
2022/01/19 03:28:22;;;;;;;13.00;7.40;;;;;;;;;;5033176;28;20036;-47
2022/01/19 03:30:48;;;;;;;14.55;7.88;;;;;;;;;;5033133;28;20468;-47
2022/01/19 03:33:14;;;;;;;14.43;8.45;;;;;;;;;;5033101;28;20113;-47
2022/01/19 03:35:40;;;;;;;14.02;7.70;;;;;;;;;;5033229;28;20423;-47
2022/01/19 03:38:09;;;;;;;12.77;8.27;;;15.10;92.20;;;;;;5033391;28;20124;-47
2022/01/19 03:40:35;;;;;;;14.65;8.77;;;;;;;;;;5032891;28;20056;-47
2022/01/19 03:43:01;;;;;;;14.82;8.20;;;;;;;;;;5032816;28;20072;-47
2022/01/19 03:45:27;;;;;;;14.55;8.00;;;;;;;;;;5032833;28;20059;-47
2022/01/19 03:48:07;;;;;;;12.73;7.50;;;;;;;;;;5032729;28;20443;-47
2022/01/19 03:50:34;;;;;;;16.02;8.70;;;15.10;91.30;;;;;;5032900;28;20387;-47
2022/01/19 03:53:00;;;;;;;14.25;8.48;;;;;;;;;;5032683;28;20018;-47
2022/01/19 03:55:26;;;;;;;15.27;8.82;;;;;;;;;;5032622;28;20036;-47
2022/01/19 03:57:52;;;;;;;14.50;8.18;;;;;;;;;;5032790;28;20026;-47
2022/01/19 04:00:19;;;;;;;13.32;7.47;;;;;;;;;;5032542;28;20032;-47
2022/01/19 04:02:45;;;;;;;14.02;8.05;;;;;;;;;;5032342;28;20056;-47
2022/01/19 04:05:20;;;;;;;14.93;8.38;;;;;;;;;;5032473;28;20025;-47
2022/01/19 04:07:46;;;;;;;13.68;8.20;;;;;;;;;;5032805;28;20029;-47
2022/01/19 04:10:12;;;;;;;14.13;8.52;;;;;;;;;;5032344;28;20025;-47
2022/01/19 04:12:55;;;;;;;18.05;8.23;;;;;;;;;;5032281;28;20040;-47
2022/01/19 04:15:23;;;;;;;16.00;8.85;;;;;;;;;;5032426;28;20025;-48
2022/01/19 04:17:53;;;;;;;11.40;7.55;;;;;;;;;;5032526;28;20112;-48
2022/01/19 04:20:23;;;;;;;14.88;8.75;;;14.90;92.20;;;;;;5032269;28;20470;-47
2022/01/19 04:22:50;;;;;;;17.58;8.73;;;;;;;;;;5032315;28;20037;-47
2022/01/19 04:25:15;;;;;;;13.15;7.93;;;;;;;;;;5032196;28;20032;-47
2022/01/19 04:27:43;;;;;;;16.40;9.13;;;;;;;;;;5032094;28;20029;-48
2022/01/19 04:30:12;;;;;;;14.13;8.43;;;14.90;92.20;;;;;;5032496;28;20057;-47
2022/01/19 04:33:10;;;;;;;16.17;8.43;;;14.80;88.60;;;;;;5032285;28;20098;-47
2022/01/19 05:03:57;;;;;;;17.50;8.70;;;;;;;;;;5035675;28;20099;-47
2022/01/19 05:06:24;;;;;;;13.73;8.25;;;;;;;;;;5036155;28;20033;-47
2022/01/19 05:08:57;;;;;;;13.25;8.85;;;;;;;;;;5035728;28;20037;-47
2022/01/19 05:14:25;;;;;;;16.25;9.52;;;;;;;;;;5013587;28;20132;-47
2022/01/19 05:16:51;;;;;;;15.55;9.00;;;;;;;;;;5031126;28;20169;-47
2022/01/19 05:19:17;;;;;;;15.52;8.55;;;;;;;;;;5035470;28;20041;-48
2022/01/19 05:21:43;;;;;;;14.90;8.15;;;;;;;;;;5035304;28;20037;-48
2022/01/19 05:24:09;;;;;;;14.25;8.55;;;;;;;;;;5035513;28;20484;-48
2022/01/19 05:26:36;;;;;;;15.68;9.25;;;;;;;;;;5035367;28;20037;-47
2022/01/19 05:29:02;;;;;;;18.25;10.02;;;;;;;;;;5035369;28;20030;-47
2022/01/19 05:31:28;;;;;;;13.77;8.68;;;;;;;;;;5035310;28;20044;-48
2022/01/19 05:33:55;;;;;;;14.85;8.32;;;;;;;;;;5035245;28;20036;-47
2022/01/19 05:36:21;;;;;;;14.18;8.60;;;;;;;;;;5035267;28;20029;-47
2022/01/19 05:38:47;;;;;;;17.17;8.38;;;;;;;;;;5035239;28;20029;-47
2022/01/19 05:41:13;;;;;;;14.80;8.32;;;;;;;;;;5035164;28;20084;-47
2022/01/19 05:43:39;;;;;;;14.38;9.07;;;;;;;;;;5035028;28;20041;-47
2022/01/19 05:46:05;;;;;;;16.40;8.93;;;;;;;;;;5035014;28;20112;-47
2022/01/19 05:48:31;;;;;;;14.70;8.73;;;;;;;;;;5035058;28;20072;-47
2022/01/19 05:50:57;;;;;;;16.35;8.77;;;;;;;;;;5034925;28;20041;-48
2022/01/19 05:53:23;;;;;;;14.27;8.63;;;;;;;;;;5034787;28;20033;-47
2022/01/19 05:55:49;;;;;;;16.30;9.15;;;;;;;;;;5034883;28;20025;-47
2022/01/19 05:58:15;;;;;;;14.05;8.82;;;;;;;;;;5034816;28;20064;-47
2022/01/19 06:00:41;;;;;;;16.90;8.80;;;;;;;;;;5034761;28;20072;-47
2022/01/19 06:03:07;;;;;;;16.98;9.07;;;;;;;;;;5034375;28;20045;-47
2022/01/19 06:05:34;;;;;;;12.75;7.80;;;;;;;;;;5034682;28;20480;-46
2022/01/19 06:08:48;;;;;;;21.05;9.23;;;;;;;;;;5034650;28;20059;-47
2022/01/19 06:10:46;;;;;;;13.82;7.70;;;;;;;;;;5030497;28;20064;-47
2022/01/19 06:13:15;;;;;;;11.63;7.15;;;15.00;92.50;;;;;;5034768;28;20045;-47
2022/01/19 06:15:41;;;;;;;13.35;7.15;;;;;;;;;;5033635;28;20013;-46
2022/01/19 06:18:08;;;;;;;12.85;7.43;;;;;;;;;;5034775;28;20387;-46
2022/01/19 06:20:33;;;;;;;12.02;7.25;;;;;;;;;;5034351;28;20115;-46
2022/01/19 06:22:59;;;;;;;11.57;6.50;;;;;;;;;;5034337;28;20033;-47
2022/01/19 06:25:25;;;;;;;10.40;6.30;;;;;;;;;;5034570;28;20052;-46
2022/01/19 06:27:51;;;;;;;12.10;7.03;;;;;;;;;;5034475;28;20472;-47
2022/01/19 06:30:17;;;;;;;10.95;6.55;;;;;;;;;;5034197;28;20029;-47
2022/01/19 06:32:43;;;;;;;11.30;6.00;;;;;;;;;;5034208;28;20029;-46
2022/01/19 06:35:09;;;;;;;12.40;6.35;;;;;;;;;;5034095;28;20392;-46
2022/01/19 06:37:36;;;;;;;9.75;5.55;;;;;;;;;;5034372;28;20392;-48
2022/01/19 06:40:04;;;;;;;11.13;5.63;;;15.90;91.30;;;;;;5034062;28;20040;-46
2022/01/19 06:42:30;;;;;;;7.65;4.95;;;;;;;;;;5033991;28;20522;-47
2022/01/19 06:44:56;;;;;;;10.43;5.30;;;;;;;;;;5034051;28;20026;-47
2022/01/19 06:47:22;;;;;;;8.68;5.30;;;;;;;;;;5034163;28;20037;-46
2022/01/19 06:49:48;;;;;;;11.00;4.95;;;;;;;;;;5034174;28;20053;-46
2022/01/19 06:52:14;;;;;;;9.75;4.57;;;;;;;;;;5033793;28;20416;-46
2022/01/19 06:54:40;;;;;;;8.90;4.55;;;;;;;;;;5033770;28;20034;-46
2022/01/19 06:57:06;;;;;;;8.50;4.68;;;;;;;;;;5033986;28;20057;-46
2022/01/19 06:59:32;;;;;;;8.52;4.53;;;;;;;;;;5033756;28;20034;-46
2022/01/19 07:01:58;;;;;;;8.43;5.13;;;;;;;;;;5033384;28;20032;-48
2022/01/19 07:04:24;;;;;;;7.65;4.35;;;;;;;;;;5033657;28;20041;-47
2022/01/19 07:06:50;;;;;;;8.00;4.75;;;;;;;;;;5033599;28;20035;-47
2022/01/19 07:09:17;;;;;;;9.65;4.95;;;;;;;;;;5033579;28;20029;-48
2022/01/19 07:11:43;;;;;;;10.93;5.43;;;;;;;;;;5033670;28;20047;-48
2022/01/19 07:14:12;;;;;;;9.20;5.03;;;;;;;;;;5033558;28;20029;-48
2022/01/19 07:16:38;;;;;;;6.90;4.78;;;;;;;;;;5033817;28;20055;-47
2022/01/19 07:19:04;;;;;;;7.95;4.70;;;;;;;;;;5033561;28;20459;-47
2022/01/19 07:21:30;;;;;;;6.38;4.18;;;;;;;;;;5033391;28;20093;-47
2022/01/19 07:23:56;;;;;;;8.32;5.10;;;;;;;;;;5032892;28;20105;-47
2022/01/19 07:26:22;;;;;;;6.20;4.47;;;;;;;;;;5033313;28;20056;-47
2022/01/19 07:28:48;;;;;;;5.75;4.22;;;;;;;;;;5033379;28;20029;-47
2022/01/19 07:31:14;;;;;;;7.38;4.35;;;;;;;;;;5033290;28;20047;-48
2022/01/19 07:33:41;;;;;;;7.85;4.75;;;;;;;;;;5033227;28;20108;-47
2022/01/19 07:36:07;;;;;;;10.80;5.03;;;;;;;;;;5033233;28;20033;-48
2022/01/19 07:38:32;;;;;;;7.90;4.88;;;;;;;;;;5033097;28;20113;-48
2022/01/19 07:40:58;;;;;;;10.20;4.95;;;;;;;;;;5033014;28;20108;-48
2022/01/19 07:43:24;;;;;;;8.75;5.53;;;;;;;;;;5032860;28;20037;-48
2022/01/19 07:45:50;;;;;;;11.95;5.32;;;;;;;;;;5032763;28;20369;-48
2022/01/19 07:48:17;;;;;;;7.93;5.05;;;;;;;;;;5032750;28;20083;-48
2022/01/19 07:50:43;;;;;;;8.52;5.47;;;;;;;;;;5032569;28;20562;-48
2022/01/19 07:53:09;;;;;;;8.32;5.45;;;;;;;;;;5032652;28;20104;-47
2022/01/19 07:55:35;;;;;;;6.80;4.55;;;;;;;;;;5032532;28;20036;-48
2022/01/19 07:58:01;;;;;;;7.40;4.88;;;;;;;;;;5032502;28;20072;-46
2022/01/19 08:00:28;;;;;;;6.78;4.47;;;;;;;;;;5032465;28;20365;-47
2022/01/19 08:02:54;;;;;;;7.35;4.63;;;;;;;;;;5032068;28;20056;-47
2022/01/19 08:05:20;;;;;;;8.48;4.82;;;;;;;;;;5032399;28;20025;-47
2022/01/19 08:07:46;;;;;;;7.10;4.43;;;;;;;;;;5032417;28;20036;-46
2022/01/19 08:10:12;;;;;;;7.63;4.82;;;;;;;;;;5032567;28;20029;-46
2022/01/19 08:12:39;;;;;;;11.35;5.53;;;;;;;;;;5032419;28;20033;-47
2022/01/19 08:15:05;;;;;;;6.78;5.18;;;;;;;;;;5032565;28;20380;-46
2022/01/19 08:17:32;;;;;;;8.02;5.00;;;;;;;;;;5032454;28;20142;-47
2022/01/19 08:19:58;;;;;;;9.40;5.47;;;;;;;;;;5032430;28;20026;-47
2022/01/19 08:22:24;;;;;;;12.77;5.40;;;;;;;;;;5032262;28;20052;-46
2022/01/19 08:24:50;;;;;;;10.05;5.32;;;;;;;;;;5032336;28;20022;-47
2022/01/19 08:27:16;;;;;;;9.75;5.85;;;;;;;;;;5032627;28;20033;-46
2022/01/19 08:29:42;;;;;;;11.77;5.93;;;;;;;;;;5032207;28;20245;-46
2022/01/19 08:32:08;;;;;;;10.52;5.90;;;;;;;;;;5032241;28;20025;-48
2022/01/19 08:34:35;;;;;;;9.98;5.68;;;;;;;;;;5031808;28;20064;-46
2022/01/19 08:37:01;;;;;;;12.15;5.28;;;;;;;;;;5031602;28;20040;-46
2022/01/19 08:39:27;;;;;;;16.20;6.43;;;;;;;;;;5032187;28;20484;-47
2022/01/19 08:41:54;;;;;;;10.57;4.93;;;;;;;;;;5032064;28;20087;-47
2022/01/19 08:44:21;;;;;;;9.55;5.88;;;15.80;92.10;;;;;;5032232;28;20033;-46
2022/01/19 08:46:47;;;;;;;12.15;6.13;;;;;;;;;;5032095;28;20034;-46
2022/01/19 08:49:13;;;;;;;11.25;6.13;;;;;;;;;;5032134;28;20076;-46
2022/01/19 08:51:39;;;;;;;17.60;7.05;;;;;;;;;;5032144;28;20439;-46
2022/01/19 08:54:05;;;;;;;12.50;6.80;;;;;;;;;;5032136;28;20112;-47
2022/01/19 08:56:31;;;;;;;11.38;5.78;;;;;;;;;;5032104;28;20322;-46
2022/01/19 08:58:58;;;;;;;11.88;6.85;;;;;;;;;;5032024;28;20155;-46
2022/01/19 09:01:24;;;;;;;16.13;7.35;;;;;;;;;;5031985;28;20053;-46
2022/01/19 09:03:50;;;;;;;22.33;8.15;;;;;;;;;;5031744;28;20052;-47
2022/01/19 09:06:16;;;;;;;15.18;6.93;;;;;;;;;;5032294;28;20029;-46
2022/01/19 09:08:42;;;;;;;18.00;7.95;;;;;;;;;;5031975;28;20037;-46
2022/01/19 09:11:09;;;;;;;16.77;8.63;;;;;;;;;;5032024;28;20032;-47
2022/01/19 09:13:35;;;;;;;13.95;7.85;;;;;;;;;;5032203;28;20026;-46
2022/01/19 09:16:02;;;;;;;18.23;8.15;;;;;;;;;;5031867;28;20034;-46
2022/01/19 09:18:28;;;;;;;18.42;7.18;;;;;;;;;;5031923;28;20391;-47
2022/01/19 09:20:54;;;;;;;19.13;8.57;;;;;;;;;;5031804;28;20468;-46
2022/01/19 09:23:19;;;;;;;12.02;7.43;;;;;;;;;;5031687;28;20051;-47
2022/01/19 09:25:45;;;;;;;15.77;8.80;;;;;;;;;;5031836;28;20026;-46
2022/01/19 09:28:12;;;;;;;12.52;7.22;;;;;;;;;;5031855;28;20033;-46
2022/01/19 09:30:40;;;;;;;15.70;7.57;;;;;;;;;;5032063;28;20033;-48
2022/01/19 09:33:08;;;;;;;16.85;8.07;;;;;;;;;;5031687;28;20029;-47
2022/01/19 09:36:30;;;;;;;12.85;7.15;;;15.80;93.30;;;;;;5032011;28;20044;-46
2022/01/19 09:38:25;;;;;;;18.52;7.68;;;15.80;92.90;;;;;;5027699;28;20079;-46
2022/01/19 09:40:52;;;;;;;13.85;7.30;;;;;;;;;;5031893;28;20104;-46
2022/01/19 09:43:21;;;;;;;14.25;7.03;;;;;;;;;;5031575;28;20172;-47
2022/01/19 09:45:47;;;;;;;14.95;7.45;;;;;;;;;;5032006;28;20116;-47
2022/01/19 09:48:13;;;;;;;11.88;6.90;;;;;;;;;;5034526;28;20083;-46
2022/01/19 09:50:39;;;;;;;13.65;7.38;;;;;;;;;;5035151;28;20111;-47
2022/01/19 09:53:07;;;;;;;13.52;7.50;;;15.70;92.90;;;;;;5035040;28;20029;-47
2022/01/19 09:55:34;;;;;;;10.50;7.25;;;;;;;;;;5035051;28;20388;-46
2022/01/19 09:58:00;;;;;;;11.57;6.90;;;;;;;;;;5034953;28;20060;-47
2022/01/19 10:00:26;;;;;;;14.32;6.95;;;;;;;;;;5034968;28;20119;-47
2022/01/19 10:03:15;;;;;;;16.17;7.18;;;15.60;89.50;;;;;;5034523;28;20119;-47
2022/01/19 10:06:11;;;;;;;10.20;6.13;;;15.70;92.60;;;;;;5035234;28;20076;-47
2022/01/19 10:08:37;;;;;;;11.43;5.85;;;;;;;;;;5029860;28;20450;-47
2022/01/19 10:11:16;;;;;;;10.13;5.50;;;15.90;89.20;;;;;;5034620;28;20140;-53
2022/01/19 10:17:00;;;;;;;9.15;6.22;;;15.90;88.50;;;;;;5034919;28;20036;-48
2022/01/19 10:19:30;;;;;;;13.10;6.10;;;15.90;92.30;;;;;;5034786;28;20034;-47
2022/01/19 10:21:57;;;;;;;12.63;6.68;;;;;;;;;;5034494;28;20029;-47
2022/01/19 10:24:56;;;;;;;8.65;5.63;;;15.90;88.60;;;;;;5034554;28;20033;-48
2022/01/19 10:27:30;;;;;;;10.43;6.03;;;15.80;88.40;;;;;;5034769;28;20026;-47
2022/01/19 10:30:02;;;;;;;10.32;6.07;;;15.80;88.80;;;;;;5034463;28;20117;-47
2022/01/19 10:32:28;;;;;;;10.95;6.22;;;;;;;;;;5034595;28;20033;-47
2022/01/19 10:34:54;;;;;;;9.93;6.15;;;;;;;;;;5034579;28;20037;-48
2022/01/19 10:37:25;;;;;;;10.45;5.97;;;15.80;90.10;;;;;;5034275;28;20037;-48
2022/01/19 10:39:51;;;;;;;7.25;4.50;;;;;;;;;;5034225;28;20373;-47
2022/01/19 10:42:23;;;;;;;10.50;5.60;;;15.80;93.20;;;;;;5034561;28;20039;-47
2022/01/19 10:45:01;;;;;;;10.90;6.05;;;15.80;90.70;;;;;;5034269;28;20033;-47
2022/01/19 10:47:56;;;;;;;10.70;6.35;;;15.70;90.40;;;;;;5034178;28;20441;-47
2022/01/19 10:50:22;;;;;;;9.40;5.90;;;;;;;;;;5034746;28;20136;-46
2022/01/19 10:52:48;;;;;;;10.43;6.35;;;;;;;;;;5034385;28;20483;-47
2022/01/19 10:55:20;;;;;;;10.77;5.70;;;15.60;91.80;;;;;;5033898;28;20052;-47
2022/01/19 10:57:47;;;;;;;9.27;6.10;;;;;;;;;;5033560;28;20022;-47
2022/01/19 11:00:13;;;;;;;12.05;6.78;;;;;;;;;;5033378;28;20033;-46
2022/01/19 11:02:39;;;;;;;8.55;5.70;;;;;;;;;;5033514;28;20045;-47
2022/01/19 11:05:06;;;;;;;11.82;6.60;;;15.40;94.20;;;;;;5033741;28;20494;-46
2022/01/19 11:07:32;;;;;;;11.32;6.18;;;;;;;;;;5033690;28;20479;-46
2022/01/19 11:10:07;;;;;;;9.20;5.85;;;;;;;;;;5033686;28;20076;-47
2022/01/19 11:12:39;;;;;;;10.55;5.95;;;;;;;;;;5033999;28;20029;-47
2022/01/19 11:15:05;;;;;;;7.40;5.45;;;;;;;;;;5033832;28;20034;-47
2022/01/19 11:17:31;;;;;;;7.75;6.10;;;;;;;;;;5033486;28;20088;-47
2022/01/19 11:20:05;;;;;;;9.63;6.75;;;15.30;96.10;;;;;;5033710;28;20061;-47
2022/01/19 11:22:49;;;;;;;10.05;6.72;;;15.40;94.00;;;;;;5033374;28;20033;-46
2022/01/19 11:25:30;;;;;;;9.02;6.18;;;15.30;93.60;;;;;;5033419;28;20029;-48
2022/01/19 11:27:56;;;;;;;9.10;6.63;;;;;;;;;;5033409;28;20033;-46
2022/01/19 11:30:29;;;;;;;11.98;7.38;;;15.40;96.90;;;;;;5033284;28;20368;-46
2022/01/19 11:33:24;;;;;;;11.00;6.82;;;15.40;94.10;;;;;;5033364;28;20099;-48
2022/01/19 11:35:56;;;;;;;8.65;6.43;;;15.40;96.40;;;;;;5033562;28;20022;-47
2022/01/19 11:38:35;;;;;;;10.43;6.32;;;15.40;93.40;;;;;;5033140;28;20380;-47
2022/01/19 11:41:23;;;;;;;8.82;5.75;;;15.40;96.70;;;;;;5033457;28;20030;-47
2022/01/19 11:43:58;;;;;;;10.65;6.90;;;15.40;93.60;;;;;;5022247;28;20124;-46
2022/01/19 11:46:33;;;;;;;8.35;5.78;;;15.40;93.60;;;;;;5033016;28;20436;-46
2022/01/19 11:49:02;;;;;;;12.02;6.47;;;15.60;96.40;;;;;;5033065;28;20048;-47
2022/01/19 11:51:29;;;;;;;8.88;6.18;;;;;;;;;;5032820;28;20067;-46
2022/01/19 11:54:03;;;;;;;8.82;6.15;;;15.40;93.90;;;;;;5032930;28;20029;-47
2022/01/19 11:56:29;;;;;;;8.88;6.32;;;;;;;;;;5032871;28;20480;-47
2022/01/19 11:59:09;;;;;;;10.73;6.53;;;15.30;93.60;;;;;;5032732;28;20040;-47
2022/01/19 12:01:35;;;;;;;8.98;6.53;;;;;;;;;;5032884;28;20028;-46
2022/01/19 12:04:19;;;;;;;9.98;6.13;;;15.40;94.20;;;;;;5032461;28;20492;-47
2022/01/19 12:06:46;;;;;;;9.48;6.63;;;;;;;;;;5032791;28;20028;-47
2022/01/19 12:09:13;;;;;;;13.85;6.78;;;;;;;;;;5032623;28;20030;-49
2022/01/19 12:11:52;;;;;;;9.73;6.95;;;15.50;97.60;;;;;;5032545;28;20029;-47
2022/01/19 12:14:22;;;;;;;10.70;6.82;;;;;;;;;;5032815;28;20021;-48
2022/01/19 12:17:02;;;;;;;9.20;6.13;;;15.50;94.70;;;;;;5032633;28;20053;-48
2022/01/19 12:19:30;;;;;;;9.02;6.50;;;15.60;97.70;;;;;;5032302;28;20439;-48
2022/01/19 12:22:22;;;;;;;10.82;7.47;;;15.60;97.90;;;;;;5032247;28;20052;-48
2022/01/19 12:25:08;;;;;;;8.50;6.10;;;15.60;95.10;;;;;;5032203;28;20067;-48
2022/01/19 12:27:36;;;;;;;11.52;7.38;;;;;;;;;;5032233;28;20520;-48
2022/01/19 12:30:10;;;;;;;9.80;7.05;;;15.60;97.70;;;;;;5032245;28;20033;-47
2022/01/19 12:32:37;;;;;;;9.80;7.18;;;;;;;;;;5032510;28;20029;-47
2022/01/19 12:35:13;;;;;;;8.60;5.90;;;15.50;94.60;;;;;;5032122;28;20029;-48
2022/01/19 12:38:19;;;;;;;11.95;7.07;;;15.60;97.40;;;;;;5032168;28;20035;-48
2022/01/19 12:40:46;;;;;;;9.10;6.85;;;;;;;;;;5023783;28;20171;-49
2022/01/19 12:43:28;;;;;;;11.23;6.15;;;15.70;97.90;;;;;;5032022;28;20140;-48
2022/01/19 12:45:55;;;;;;;9.32;6.57;;;15.70;97.70;;;;;;5032166;28;20017;-50
2022/01/19 12:48:37;;;;;;;11.63;6.07;;;15.80;94.70;;;;;;5032034;28;20055;-46
2022/01/19 12:51:04;;;;;;;13.18;6.53;;;;;;;;;;5032028;28;20053;-49
2022/01/19 12:53:30;;;;;;;21.02;5.85;;;;;;;;;;5032058;28;20021;-48
2022/01/19 12:55:58;;;;;;;9.18;5.53;;;;;;;;;;5032038;28;20040;-47
2022/01/19 12:58:31;;;;;;;9.27;5.47;;;16.00;97.80;;;;;;5031914;28;20479;-48
2022/01/19 13:01:00;;;;;;;7.90;4.90;;;15.90;97.70;;;;;;5032326;28;20408;-48
2022/01/19 13:03:40;;;;;;;5.88;4.60;;;16.00;95.00;;;;;;5031835;28;20038;-47
2022/01/19 13:06:13;;;;;;;6.30;4.93;;;16.10;97.70;;;;;;5032071;28;20092;-48
2022/01/19 13:08:41;;;;;;;5.45;4.15;;;;;;;;;;5032146;28;20097;-48
2022/01/19 13:11:25;;;;;;;5.13;4.50;;;16.30;94.80;;;;;;5032157;28;20425;-48
2022/01/19 13:14:03;;;;;;;6.78;4.68;;;16.30;97.60;;;;;;5032045;28;20487;-49
2022/01/19 13:16:41;;;;;;;7.65;4.72;;;16.50;97.50;;;;;;5032006;28;20076;-47
2022/01/19 13:19:11;;;;;;;5.93;4.05;;;16.50;97.40;;;;;;5032174;28;20128;-47
2022/01/19 13:21:39;;;;;;;6.28;4.85;;;16.80;97.40;;;;;;5032891;28;20365;-48
2022/01/19 13:24:19;;;;;;;5.55;4.07;;;16.70;94.40;;;;;;5035693;28;20041;-46
2022/01/19 13:26:54;;;;;;;4.75;3.92;;;16.80;94.40;;;;;;5035727;28;20049;-47
2022/01/19 13:29:27;;;;;;;5.88;4.45;;;16.90;97.20;;;;;;5035729;28;20061;-47
2022/01/19 13:31:56;;;;;;;5.10;3.85;;;17.00;97.20;;;;;;5035577;28;20501;-47
2022/01/19 13:34:22;;;;;;;4.97;3.72;;;;;;;;;;5035565;28;20034;-48
2022/01/19 13:36:57;;;;;;;4.90;3.80;;;17.00;97.20;;;;;;5035483;28;20049;-47
2022/01/19 13:39:24;;;;;;;5.30;3.80;;;17.10;97.10;;;;;;5035510;28;20021;-47
2022/01/19 13:41:52;;;;;;;4.43;3.50;;;;;;;;;;5035383;28;20053;-47
2022/01/19 13:44:33;;;;;;;6.90;3.75;;;17.30;97.10;;;;;;5035612;28;20029;-47
2022/01/19 13:47:10;;;;;;;3.92;3.50;;;17.20;94.00;;;;;;5035346;28;20025;-47
2022/01/19 13:49:36;;;;;;;4.75;3.45;;;;;;;;;;5035077;28;20049;-49
2022/01/19 13:52:02;;;;;;;5.53;3.63;;;;;;;;;;5034563;28;20030;-47
2022/01/19 13:54:28;;;;;;;4.25;3.35;;;;;;;;;;5034952;28;20445;-49
2022/01/19 13:57:01;;;;;;;3.78;3.20;;;17.40;93.80;;;;;;5035388;28;20030;-47
2022/01/19 13:59:27;;;;;;;6.88;3.92;;;;;;;;;;5035134;28;20368;-47
2022/01/19 14:04:22;;;;;;;6.85;3.58;;;;;;;;;;5035450;28;20098;-47
2022/01/19 14:06:51;;;;;;;4.32;3.20;;;17.50;95.80;;;;;;5035086;28;20025;-47
2022/01/19 14:09:31;;;;;;;4.72;3.55;;;17.50;96.50;;;;;;5035252;28;20022;-47
2022/01/19 14:11:57;;;;;;;4.93;3.50;;;;;;;;;;5034951;28;20111;-48
2022/01/19 14:14:26;;;;;;;4.30;3.60;;;17.60;96.60;;;;;;5035123;28;20033;-47
2022/01/19 14:16:53;;;;;;;5.38;3.28;;;;;;;;;;5034744;28;20083;-49
2022/01/19 14:19:29;;;;;;;4.05;3.50;;;17.60;93.50;;;;;;5034730;28;20417;-49
2022/01/19 14:21:56;;;;;;;5.60;3.45;;;;;;;;;;5034739;28;20025;-48
2022/01/19 14:24:22;;;;;;;5.55;3.45;;;;;;;;;;5034645;28;20479;-50
2022/01/19 14:26:57;;;;;;;3.83;3.40;;;17.60;93.40;;;;;;5034637;28;20026;-48
2022/01/19 14:29:23;;;;;;;5.63;3.40;;;;;;;;;;5034888;28;20098;-49
2022/01/19 14:31:54;;;;;;;6.47;3.53;;;17.60;96.40;;;;;;5034629;28;20025;-49
2022/01/19 14:34:42;;;;;;;4.47;3.00;;;17.70;93.30;;;;;;5033150;28;20053;-49
2022/01/19 14:37:17;;;;;;;5.63;3.05;;;17.70;93.20;;;;;;5034368;28;20029;-48
2022/01/19 14:39:52;;;;;;;4.40;2.83;;;17.70;93.10;;;;;;5034475;28;20424;-48
2022/01/19 14:42:21;;;;;;;3.80;3.00;;;17.80;96.10;;;;;;5034034;28;20037;-47
2022/01/19 14:44:59;;;;;;;3.58;2.90;;;;;;;;;;5034390;28;20026;-48
2022/01/19 14:47:39;;;;;;;3.13;2.50;;;17.80;93.10;;;;;;5032687;28;20480;-48
2022/01/19 14:50:27;;;;;;;3.65;3.22;;;17.80;93.30;;;;;;5034486;28;20091;-48
2022/01/19 14:52:55;;;;;;;2.90;2.70;;;17.80;93.10;;;;;;5034168;28;20022;-48
2022/01/19 14:55:28;;;;;;;5.68;3.20;;;17.80;93.00;;;;;;5034172;28;20349;-47
2022/01/19 14:57:54;;;;;;;4.05;3.10;;;17.70;94.60;;;;;;5034173;28;20037;-48
2022/01/19 15:00:22;;;;;;;3.22;2.80;;;17.70;95.90;;;;;;5034135;28;20018;-48
2022/01/19 15:02:57;;;;;;;3.97;2.88;;;;;;;;;;5033638;28;20050;-47
2022/01/19 15:05:28;;;;;;;3.15;2.75;;;17.40;92.80;;;;;;5034273;28;20083;-50
2022/01/19 15:07:55;;;;;;;4.55;3.15;;;17.80;94.60;;;;;;5033879;28;20033;-47
2022/01/19 15:10:21;;;;;;;5.07;2.65;;;;;;;;;;5033816;28;20033;-47
2022/01/19 15:12:51;;;;;;;3.47;2.40;;;;;;;;;;5033755;28;20033;-48
2022/01/19 15:15:17;;;;;;;4.00;2.58;;;;;;;;;;5033725;28;20021;-47
2022/01/19 15:17:43;;;;;;;3.28;2.70;;;;;;;;;;5033711;28;20044;-48
2022/01/19 15:20:10;;;;;;;4.20;2.80;;;;;;;;;;5033631;28;20029;-48
2022/01/19 15:22:36;;;;;;;3.28;2.85;;;;;;;;;;5033344;28;20071;-48
2022/01/19 15:25:03;;;;;;;3.53;2.90;;;17.90;95.60;;;;;;5033382;28;20037;-47
2022/01/19 15:27:29;;;;;;;3.78;2.33;;;;;;;;;;5033376;28;20502;-48
2022/01/19 15:29:55;;;;;;;4.88;3.35;;;;;;;;;;5033383;28;20029;-48
2022/01/19 15:32:21;;;;;;;3.28;2.88;;;;;;;;;;5033296;28;20076;-47
2022/01/19 15:34:48;;;;;;;2.95;2.35;;;;;;;;;;5033356;28;20416;-48